sensor_id;sensor_type;location;lat;lon;timestamp;temperature;humidity
40177;DHT22;31511;46.176;9.874;2023-04-02T00:01:03;9.40;99.90
40177;DHT22;31511;46.176;9.874;2023-04-02T00:06:36;9.40;99.90
40177;DHT22;31511;46.176;9.874;2023-04-02T00:09:30;9.20;99.90
40177;DHT22;31511;46.176;9.874;2023-04-02T00:12:17;9.10;99.90
40177;DHT22;31511;46.176;9.874;2023-04-02T00:15:02;9.30;99.90
40177;DHT22;31511;46.176;9.874;2023-04-02T00:17:46;9.30;99.90
40177;DHT22;31511;46.176;9.874;2023-04-02T00:20:40;9.30;99.90
40177;DHT22;31511;46.176;9.874;2023-04-02T00:23:26;9.40;99.90
40177;DHT22;31511;46.176;9.874;2023-04-02T00:26:29;9.30;99.90
40177;DHT22;31511;46.176;9.874;2023-04-02T00:29:16;9.40;99.90
40177;DHT22;31511;46.176;9.874;2023-04-02T00:32:01;9.10;99.90
40177;DHT22;31511;46.176;9.874;2023-04-02T00:34:45;9.10;99.90
40177;DHT22;31511;46.176;9.874;2023-04-02T00:37:30;9.10;99.90
40177;DHT22;31511;46.176;9.874;2023-04-02T00:40:26;9.10;99.90
40177;DHT22;31511;46.176;9.874;2023-04-02T00:43:13;9.00;99.90
40177;DHT22;31511;46.176;9.874;2023-04-02T00:46:09;8.90;99.90
40177;DHT22;31511;46.176;9.874;2023-04-02T00:49:02;8.70;99.90
40177;DHT22;31511;46.176;9.874;2023-04-02T00:51:52;8.90;99.90
40177;DHT22;31511;46.176;9.874;2023-04-02T00:54:41;8.80;99.90
40177;DHT22;31511;46.176;9.874;2023-04-02T00:57:28;8.80;99.90
40177;DHT22;31511;46.176;9.874;2023-04-02T01:00:22;8.70;99.90
40177;DHT22;31511;46.176;9.874;2023-04-02T01:06:09;8.80;99.90
40177;DHT22;31511;46.176;9.874;2023-04-02T01:23:46;8.70;99.90
40177;DHT22;31511;46.176;9.874;2023-04-02T01:26:47;8.70;99.90
40177;DHT22;31511;46.176;9.874;2023-04-02T01:29:34;8.70;99.90
40177;DHT22;31511;46.176;9.874;2023-04-02T01:32:20;8.70;99.90
40177;DHT22;31511;46.176;9.874;2023-04-02T01:35:06;8.70;99.90
40177;DHT22;31511;46.176;9.874;2023-04-02T01:37:53;8.80;99.90
40177;DHT22;31511;46.176;9.874;2023-04-02T01:40:44;8.70;99.90
40177;DHT22;31511;46.176;9.874;2023-04-02T01:46:28;8.40;99.90
40177;DHT22;31511;46.176;9.874;2023-04-02T01:49:17;8.50;99.90
40177;DHT22;31511;46.176;9.874;2023-04-02T01:52:03;8.50;99.90
40177;DHT22;31511;46.176;9.874;2023-04-02T01:54:47;8.60;99.90
40177;DHT22;31511;46.176;9.874;2023-04-02T01:57:32;8.50;99.90
40177;DHT22;31511;46.176;9.874;2023-04-02T02:00:16;8.40;99.90
40177;DHT22;31511;46.176;9.874;2023-04-02T02:03:02;8.40;99.90
40177;DHT22;31511;46.176;9.874;2023-04-02T02:05:48;8.30;99.90
40177;DHT22;31511;46.176;9.874;2023-04-02T02:08:37;8.30;99.90
40177;DHT22;31511;46.176;9.874;2023-04-02T02:11:24;8.20;99.90
40177;DHT22;31511;46.176;9.874;2023-04-02T02:14:15;8.10;99.90
40177;DHT22;31511;46.176;9.874;2023-04-02T02:17:00;8.10;99.90
40177;DHT22;31511;46.176;9.874;2023-04-02T02:19:50;8.00;99.90
40177;DHT22;31511;46.176;9.874;2023-04-02T02:22:36;7.90;99.90
40177;DHT22;31511;46.176;9.874;2023-04-02T02:25:27;7.70;99.90
40177;DHT22;31511;46.176;9.874;2023-04-02T02:28:15;7.70;99.90
40177;DHT22;31511;46.176;9.874;2023-04-02T02:31:04;7.80;99.90
40177;DHT22;31511;46.176;9.874;2023-04-02T02:33:51;7.80;99.90
40177;DHT22;31511;46.176;9.874;2023-04-02T02:36:51;7.90;99.90
40177;DHT22;31511;46.176;9.874;2023-04-02T02:39:38;8.00;99.90
40177;DHT22;31511;46.176;9.874;2023-04-02T02:42:29;8.00;99.90
40177;DHT22;31511;46.176;9.874;2023-04-02T02:45:16;7.90;99.90
40177;DHT22;31511;46.176;9.874;2023-04-02T02:48:01;7.70;99.90
40177;DHT22;31511;46.176;9.874;2023-04-02T02:50:46;7.70;99.90
40177;DHT22;31511;46.176;9.874;2023-04-02T02:53:30;7.80;99.90
40177;DHT22;31511;46.176;9.874;2023-04-02T02:56:15;7.50;99.90
40177;DHT22;31511;46.176;9.874;2023-04-02T02:58:59;7.30;99.90
40177;DHT22;31511;46.176;9.874;2023-04-02T03:01:44;7.30;99.90
40177;DHT22;31511;46.176;9.874;2023-04-02T03:04:30;7.50;99.90
40177;DHT22;31511;46.176;9.874;2023-04-02T03:07:19;7.50;99.90
40177;DHT22;31511;46.176;9.874;2023-04-02T03:18:50;7.30;99.90
40177;DHT22;31511;46.176;9.874;2023-04-02T03:21:38;7.50;99.90
40177;DHT22;31511;46.176;9.874;2023-04-02T03:24:34;7.60;99.90
40177;DHT22;31511;46.176;9.874;2023-04-02T03:27:21;7.50;99.90
40177;DHT22;31511;46.176;9.874;2023-04-02T03:32:59;7.30;99.90
40177;DHT22;31511;46.176;9.874;2023-04-02T03:39:24;7.20;99.90
40177;DHT22;31511;46.176;9.874;2023-04-02T03:41:50;7.10;99.90
40177;DHT22;31511;46.176;9.874;2023-04-02T03:44:37;7.20;99.90
40177;DHT22;31511;46.176;9.874;2023-04-02T03:47:25;7.20;99.90
40177;DHT22;31511;46.176;9.874;2023-04-02T03:50:34;7.30;99.90
40177;DHT22;31511;46.176;9.874;2023-04-02T03:53:23;7.30;99.90
40177;DHT22;31511;46.176;9.874;2023-04-02T03:56:09;7.10;99.90
40177;DHT22;31511;46.176;9.874;2023-04-02T03:59:03;7.30;99.90
40177;DHT22;31511;46.176;9.874;2023-04-02T04:04:39;7.50;99.90
40177;DHT22;31511;46.176;9.874;2023-04-02T04:07:35;7.30;99.90
40177;DHT22;31511;46.176;9.874;2023-04-02T04:10:26;7.30;99.90
40177;DHT22;31511;46.176;9.874;2023-04-02T04:13:14;7.30;99.90
40177;DHT22;31511;46.176;9.874;2023-04-02T04:16:01;7.30;99.90
40177;DHT22;31511;46.176;9.874;2023-04-02T04:18:48;7.60;99.90
40177;DHT22;31511;46.176;9.874;2023-04-02T04:21:34;7.40;99.90
40177;DHT22;31511;46.176;9.874;2023-04-02T04:24:23;7.40;99.90
40177;DHT22;31511;46.176;9.874;2023-04-02T04:27:11;7.40;99.90
40177;DHT22;31511;46.176;9.874;2023-04-02T04:30:05;7.10;99.90
40177;DHT22;31511;46.176;9.874;2023-04-02T04:32:54;7.00;99.90
40177;DHT22;31511;46.176;9.874;2023-04-02T04:35:45;7.10;99.90
40177;DHT22;31511;46.176;9.874;2023-04-02T04:38:31;7.00;99.90
40177;DHT22;31511;46.176;9.874;2023-04-02T04:41:19;7.20;99.90
40177;DHT22;31511;46.176;9.874;2023-04-02T04:52:37;7.30;99.90
40177;DHT22;31511;46.176;9.874;2023-04-02T04:55:27;7.20;99.90
40177;DHT22;31511;46.176;9.874;2023-04-02T04:58:23;7.10;99.90
40177;DHT22;31511;46.176;9.874;2023-04-02T05:06:56;7.00;99.90
40177;DHT22;31511;46.176;9.874;2023-04-02T05:12:35;6.90;99.90
40177;DHT22;31511;46.176;9.874;2023-04-02T05:15:24;7.00;99.90
40177;DHT22;31511;46.176;9.874;2023-04-02T05:18:31;6.90;99.90
40177;DHT22;31511;46.176;9.874;2023-04-02T05:21:20;6.90;99.90
40177;DHT22;31511;46.176;9.874;2023-04-02T05:26:51;7.00;99.90
40177;DHT22;31511;46.176;9.874;2023-04-02T05:29:37;7.00;99.90
40177;DHT22;31511;46.176;9.874;2023-04-02T05:32:28;7.10;99.90
40177;DHT22;31511;46.176;9.874;2023-04-02T05:35:16;7.10;99.90
40177;DHT22;31511;46.176;9.874;2023-04-02T05:38:01;6.90;99.90
40177;DHT22;31511;46.176;9.874;2023-04-02T05:40:45;7.00;99.90
40177;DHT22;31511;46.176;9.874;2023-04-02T05:43:32;6.90;99.90
40177;DHT22;31511;46.176;9.874;2023-04-02T05:46:19;7.00;99.90
40177;DHT22;31511;46.176;9.874;2023-04-02T05:49:07;7.00;99.90
40177;DHT22;31511;46.176;9.874;2023-04-02T05:51:55;7.20;99.90
40177;DHT22;31511;46.176;9.874;2023-04-02T05:54:46;7.10;99.90
40177;DHT22;31511;46.176;9.874;2023-04-02T05:57:33;7.00;99.90
40177;DHT22;31511;46.176;9.874;2023-04-02T06:00:22;7.20;99.90
40177;DHT22;31511;46.176;9.874;2023-04-02T06:03:15;7.20;99.90
40177;DHT22;31511;46.176;9.874;2023-04-02T06:06:56;7.20;99.90
40177;DHT22;31511;46.176;9.874;2023-04-02T06:09:28;7.10;99.90
40177;DHT22;31511;46.176;9.874;2023-04-02T06:15:01;7.00;99.90
40177;DHT22;31511;46.176;9.874;2023-04-02T06:18:08;7.00;99.90
40177;DHT22;31511;46.176;9.874;2023-04-02T06:20:50;7.20;99.90
40177;DHT22;31511;46.176;9.874;2023-04-02T06:26:32;7.10;99.90
40177;DHT22;31511;46.176;9.874;2023-04-02T06:29:32;7.20;99.90
40177;DHT22;31511;46.176;9.874;2023-04-02T06:32:22;7.30;99.90
40177;DHT22;31511;46.176;9.874;2023-04-02T06:35:11;7.10;99.90
40177;DHT22;31511;46.176;9.874;2023-04-02T06:37:57;7.20;99.90
40177;DHT22;31511;46.176;9.874;2023-04-02T06:40:54;7.30;99.90
40177;DHT22;31511;46.176;9.874;2023-04-02T06:43:40;7.40;99.90
40177;DHT22;31511;46.176;9.874;2023-04-02T06:46:29;7.30;99.90
40177;DHT22;31511;46.176;9.874;2023-04-02T06:49:28;7.40;99.90
40177;DHT22;31511;46.176;9.874;2023-04-02T06:52:17;7.40;99.90
40177;DHT22;31511;46.176;9.874;2023-04-02T06:55:04;7.60;99.90
40177;DHT22;31511;46.176;9.874;2023-04-02T06:57:50;7.80;99.90
40177;DHT22;31511;46.176;9.874;2023-04-02T07:00:35;7.90;99.90
40177;DHT22;31511;46.176;9.874;2023-04-02T07:06:05;8.00;99.90
40177;DHT22;31511;46.176;9.874;2023-04-02T07:08:50;8.00;99.90
40177;DHT22;31511;46.176;9.874;2023-04-02T07:11:34;8.30;99.90
40177;DHT22;31511;46.176;9.874;2023-04-02T07:14:19;8.30;99.90
40177;DHT22;31511;46.176;9.874;2023-04-02T07:17:05;8.10;99.90
40177;DHT22;31511;46.176;9.874;2023-04-02T07:19:49;8.10;99.90
40177;DHT22;31511;46.176;9.874;2023-04-02T07:22:34;8.30;99.90
40177;DHT22;31511;46.176;9.874;2023-04-02T07:25:19;8.50;99.90
40177;DHT22;31511;46.176;9.874;2023-04-02T07:28:04;8.50;99.90
40177;DHT22;31511;46.176;9.874;2023-04-02T07:30:49;8.70;99.90
40177;DHT22;31511;46.176;9.874;2023-04-02T07:33:34;8.80;99.90
40177;DHT22;31511;46.176;9.874;2023-04-02T07:36:20;9.00;99.90
40177;DHT22;31511;46.176;9.874;2023-04-02T07:39:06;9.10;99.90
40177;DHT22;31511;46.176;9.874;2023-04-02T07:41:51;9.40;99.90
40177;DHT22;31511;46.176;9.874;2023-04-02T07:44:35;9.40;99.90
40177;DHT22;31511;46.176;9.874;2023-04-02T07:47:20;9.60;99.90
40177;DHT22;31511;46.176;9.874;2023-04-02T07:50:06;9.80;99.90
40177;DHT22;31511;46.176;9.874;2023-04-02T07:52:51;10.10;99.90
40177;DHT22;31511;46.176;9.874;2023-04-02T07:55:36;10.10;99.90
40177;DHT22;31511;46.176;9.874;2023-04-02T07:58:21;10.10;99.90
40177;DHT22;31511;46.176;9.874;2023-04-02T08:01:12;10.20;99.90
40177;DHT22;31511;46.176;9.874;2023-04-02T08:04:01;10.40;99.90
40177;DHT22;31511;46.176;9.874;2023-04-02T08:06:45;10.40;99.90
40177;DHT22;31511;46.176;9.874;2023-04-02T08:09:30;10.60;99.90
40177;DHT22;31511;46.176;9.874;2023-04-02T08:12:14;10.60;99.90
40177;DHT22;31511;46.176;9.874;2023-04-02T08:14:59;10.80;99.90
40177;DHT22;31511;46.176;9.874;2023-04-02T08:17:44;10.90;99.90
40177;DHT22;31511;46.176;9.874;2023-04-02T08:20:29;11.00;99.90
40177;DHT22;31511;46.176;9.874;2023-04-02T08:23:14;11.10;99.90
40177;DHT22;31511;46.176;9.874;2023-04-02T08:26:00;11.20;99.90
40177;DHT22;31511;46.176;9.874;2023-04-02T08:28:45;11.40;99.90
40177;DHT22;31511;46.176;9.874;2023-04-02T08:31:29;11.50;99.90
40177;DHT22;31511;46.176;9.874;2023-04-02T08:34:14;11.70;99.90
40177;DHT22;31511;46.176;9.874;2023-04-02T08:36:59;11.80;99.90
40177;DHT22;31511;46.176;9.874;2023-04-02T08:39:43;12.10;99.90
40177;DHT22;31511;46.176;9.874;2023-04-02T08:42:32;12.20;99.90
40177;DHT22;31511;46.176;9.874;2023-04-02T08:48:06;12.30;99.90
40177;DHT22;31511;46.176;9.874;2023-04-02T08:50:52;12.70;99.90
40177;DHT22;31511;46.176;9.874;2023-04-02T08:53:37;12.60;99.90
40177;DHT22;31511;46.176;9.874;2023-04-02T08:56:28;12.70;99.90
40177;DHT22;31511;46.176;9.874;2023-04-02T09:05:01;13.00;99.90
40177;DHT22;31511;46.176;9.874;2023-04-02T09:07:46;13.20;99.90
40177;DHT22;31511;46.176;9.874;2023-04-02T09:10:38;13.40;99.90
40177;DHT22;31511;46.176;9.874;2023-04-02T09:13:26;13.40;99.90
40177;DHT22;31511;46.176;9.874;2023-04-02T09:16:14;13.60;99.90
40177;DHT22;31511;46.176;9.874;2023-04-02T09:18:59;13.80;99.90
40177;DHT22;31511;46.176;9.874;2023-04-02T09:21:51;14.10;99.90
40177;DHT22;31511;46.176;9.874;2023-04-02T09:24:39;14.20;99.90
40177;DHT22;31511;46.176;9.874;2023-04-02T09:27:29;14.10;99.90
40177;DHT22;31511;46.176;9.874;2023-04-02T09:33:12;14.40;99.90
40177;DHT22;31511;46.176;9.874;2023-04-02T09:35:57;14.80;99.90
40177;DHT22;31511;46.176;9.874;2023-04-02T09:38:41;14.70;99.90
40177;DHT22;31511;46.176;9.874;2023-04-02T09:41:39;14.80;99.90
40177;DHT22;31511;46.176;9.874;2023-04-02T09:44:26;15.10;99.90
40177;DHT22;31511;46.176;9.874;2023-04-02T09:47:24;15.10;99.90
40177;DHT22;31511;46.176;9.874;2023-04-02T09:50:13;15.30;99.90
40177;DHT22;31511;46.176;9.874;2023-04-02T09:52:58;15.50;99.90
40177;DHT22;31511;46.176;9.874;2023-04-02T09:55:42;15.90;99.90
40177;DHT22;31511;46.176;9.874;2023-04-02T09:58:28;16.30;99.90
40177;DHT22;31511;46.176;9.874;2023-04-02T10:01:24;16.30;99.90
40177;DHT22;31511;46.176;9.874;2023-04-02T10:04:54;16.60;99.90
40177;DHT22;31511;46.176;9.874;2023-04-02T10:07:31;18.00;99.90
40177;DHT22;31511;46.176;9.874;2023-04-02T10:13:22;24.30;99.90
40177;DHT22;31511;46.176;9.874;2023-04-02T10:16:11;25.40;99.90
40177;DHT22;31511;46.176;9.874;2023-04-02T10:18:57;26.70;99.90
40177;DHT22;31511;46.176;9.874;2023-04-02T10:21:41;29.30;99.90
40177;DHT22;31511;46.176;9.874;2023-04-02T10:24:27;29.80;99.90
40177;DHT22;31511;46.176;9.874;2023-04-02T10:33:25;31.80;99.90
40177;DHT22;31511;46.176;9.874;2023-04-02T10:36:10;31.00;99.90
40177;DHT22;31511;46.176;9.874;2023-04-02T10:41:57;31.80;99.90
40177;DHT22;31511;46.176;9.874;2023-04-02T10:47:49;33.20;99.90
40177;DHT22;31511;46.176;9.874;2023-04-02T10:50:57;29.70;99.90
40177;DHT22;31511;46.176;9.874;2023-04-02T10:53:45;30.70;99.90
40177;DHT22;31511;46.176;9.874;2023-04-02T10:56:32;27.20;99.90
40177;DHT22;31511;46.176;9.874;2023-04-02T10:59:21;24.90;99.90
40177;DHT22;31511;46.176;9.874;2023-04-02T11:02:21;26.30;99.90
40177;DHT22;31511;46.176;9.874;2023-04-02T11:05:13;29.50;99.90
40177;DHT22;31511;46.176;9.874;2023-04-02T11:08:21;30.00;99.90
40177;DHT22;31511;46.176;9.874;2023-04-02T11:16:49;24.50;99.90
40177;DHT22;31511;46.176;9.874;2023-04-02T11:19:33;23.30;99.90
40177;DHT22;31511;46.176;9.874;2023-04-02T11:22:20;24.70;99.90
40177;DHT22;31511;46.176;9.874;2023-04-02T11:25:12;23.90;99.90
40177;DHT22;31511;46.176;9.874;2023-04-02T11:31:05;23.80;99.90
40177;DHT22;31511;46.176;9.874;2023-04-02T11:33:49;26.70;99.90
40177;DHT22;31511;46.176;9.874;2023-04-02T11:39:46;32.70;99.90
40177;DHT22;31511;46.176;9.874;2023-04-02T11:42:34;36.90;99.90
40177;DHT22;31511;46.176;9.874;2023-04-02T11:50:59;29.30;99.90
40177;DHT22;31511;46.176;9.874;2023-04-02T11:53:50;31.30;99.90
40177;DHT22;31511;46.176;9.874;2023-04-02T11:56:45;31.60;99.90
40177;DHT22;31511;46.176;9.874;2023-04-02T11:59:35;34.40;99.90
40177;DHT22;31511;46.176;9.874;2023-04-02T12:02:33;32.50;99.90
40177;DHT22;31511;46.176;9.874;2023-04-02T12:05:57;32.70;99.90
40177;DHT22;31511;46.176;9.874;2023-04-02T12:11:31;33.70;99.90
40177;DHT22;31511;46.176;9.874;2023-04-02T12:17:30;29.50;99.90
40177;DHT22;31511;46.176;9.874;2023-04-02T12:20:20;30.50;99.90
40177;DHT22;31511;46.176;9.874;2023-04-02T12:23:05;30.00;99.90
40177;DHT22;31511;46.176;9.874;2023-04-02T12:25:52;30.30;99.90
40177;DHT22;31511;46.176;9.874;2023-04-02T12:28:37;28.70;99.90
40177;DHT22;31511;46.176;9.874;2023-04-02T12:31:23;27.60;99.90
40177;DHT22;31511;46.176;9.874;2023-04-02T12:34:12;26.50;99.90
40177;DHT22;31511;46.176;9.874;2023-04-02T12:37:00;27.00;99.90
40177;DHT22;31511;46.176;9.874;2023-04-02T12:39:58;24.70;99.90
40177;DHT22;31511;46.176;9.874;2023-04-02T12:42:42;24.20;99.90
40177;DHT22;31511;46.176;9.874;2023-04-02T12:45:29;22.70;99.90
40177;DHT22;31511;46.176;9.874;2023-04-02T12:48:16;22.50;99.90
40177;DHT22;31511;46.176;9.874;2023-04-02T12:51:00;22.00;99.90
40177;DHT22;31511;46.176;9.874;2023-04-02T12:53:49;21.30;99.90
40177;DHT22;31511;46.176;9.874;2023-04-02T12:56:34;21.10;99.90
40177;DHT22;31511;46.176;9.874;2023-04-02T12:59:30;20.60;99.90
40177;DHT22;31511;46.176;9.874;2023-04-02T13:02:18;20.30;99.90
40177;DHT22;31511;46.176;9.874;2023-04-02T13:05:04;20.60;99.90
40177;DHT22;31511;46.176;9.874;2023-04-02T13:07:50;21.10;99.90
40177;DHT22;31511;46.176;9.874;2023-04-02T13:10:35;21.10;99.90
40177;DHT22;31511;46.176;9.874;2023-04-02T13:13:23;21.10;99.90
40177;DHT22;31511;46.176;9.874;2023-04-02T13:19:09;21.80;99.90
40177;DHT22;31511;46.176;9.874;2023-04-02T13:21:54;22.70;99.90
40177;DHT22;31511;46.176;9.874;2023-04-02T13:24:39;23.30;99.90
40177;DHT22;31511;46.176;9.874;2023-04-02T13:27:24;23.20;99.90
40177;DHT22;31511;46.176;9.874;2023-04-02T13:30:09;21.60;99.90
40177;DHT22;31511;46.176;9.874;2023-04-02T13:32:53;20.80;99.90
40177;DHT22;31511;46.176;9.874;2023-04-02T13:35:38;20.30;99.90
40177;DHT22;31511;46.176;9.874;2023-04-02T13:38:22;20.10;99.90
40177;DHT22;31511;46.176;9.874;2023-04-02T13:41:16;22.50;99.90
40177;DHT22;31511;46.176;9.874;2023-04-02T13:44:02;22.60;99.90
40177;DHT22;31511;46.176;9.874;2023-04-02T13:46:47;20.80;99.90
40177;DHT22;31511;46.176;9.874;2023-04-02T13:49:31;20.60;99.90
40177;DHT22;31511;46.176;9.874;2023-04-02T13:52:15;20.40;99.90
40177;DHT22;31511;46.176;9.874;2023-04-02T13:55:00;19.70;99.90
40177;DHT22;31511;46.176;9.874;2023-04-02T13:57:45;19.70;99.90
40177;DHT22;31511;46.176;9.874;2023-04-02T14:00:29;19.60;99.90
40177;DHT22;31511;46.176;9.874;2023-04-02T14:03:20;19.30;99.90
40177;DHT22;31511;46.176;9.874;2023-04-02T14:09:32;19.70;99.90
40177;DHT22;31511;46.176;9.874;2023-04-02T14:15:30;19.70;99.90
40177;DHT22;31511;46.176;9.874;2023-04-02T14:26:36;21.10;99.90
40177;DHT22;31511;46.176;9.874;2023-04-02T14:29:37;21.20;99.90
40177;DHT22;31511;46.176;9.874;2023-04-02T14:35:34;20.30;99.90
40177;DHT22;31511;46.176;9.874;2023-04-02T14:38:18;20.60;99.90
40177;DHT22;31511;46.176;9.874;2023-04-02T14:41:06;19.90;99.90
40177;DHT22;31511;46.176;9.874;2023-04-02T14:44:02;21.30;99.90
40177;DHT22;31511;46.176;9.874;2023-04-02T14:46:47;21.40;99.90
40177;DHT22;31511;46.176;9.874;2023-04-02T14:49:37;21.10;99.90
40177;DHT22;31511;46.176;9.874;2023-04-02T14:52:24;21.60;99.90
40177;DHT22;31511;46.176;9.874;2023-04-02T14:55:43;21.80;99.90
40177;DHT22;31511;46.176;9.874;2023-04-02T14:58:23;21.10;99.90
40177;DHT22;31511;46.176;9.874;2023-04-02T15:04:02;21.40;99.90
40177;DHT22;31511;46.176;9.874;2023-04-02T15:06:49;20.90;99.90
40177;DHT22;31511;46.176;9.874;2023-04-02T15:09:41;20.40;99.90
40177;DHT22;31511;46.176;9.874;2023-04-02T15:12:29;20.10;99.90
40177;DHT22;31511;46.176;9.874;2023-04-02T15:15:23;20.10;99.90
40177;DHT22;31511;46.176;9.874;2023-04-02T15:18:14;19.90;99.90
40177;DHT22;31511;46.176;9.874;2023-04-02T15:30:10;19.60;99.90
40177;DHT22;31511;46.176;9.874;2023-04-02T15:32:56;19.80;99.90
40177;DHT22;31511;46.176;9.874;2023-04-02T15:35:53;19.80;99.90
40177;DHT22;31511;46.176;9.874;2023-04-02T15:38:44;19.80;99.90
40177;DHT22;31511;46.176;9.874;2023-04-02T15:41:31;19.80;99.90
40177;DHT22;31511;46.176;9.874;2023-04-02T15:44:21;19.70;99.90
40177;DHT22;31511;46.176;9.874;2023-04-02T15:47:16;19.60;99.90
40177;DHT22;31511;46.176;9.874;2023-04-02T15:56:12;19.70;99.90
40177;DHT22;31511;46.176;9.874;2023-04-02T16:10:59;19.60;99.90
40177;DHT22;31511;46.176;9.874;2023-04-02T16:13:43;19.60;99.90
40177;DHT22;31511;46.176;9.874;2023-04-02T16:16:33;19.50;99.90
40177;DHT22;31511;46.176;9.874;2023-04-02T16:19:27;20.00;99.90
40177;DHT22;31511;46.176;9.874;2023-04-02T16:22:24;20.10;99.90
40177;DHT22;31511;46.176;9.874;2023-04-02T16:25:15;20.20;99.90
40177;DHT22;31511;46.176;9.874;2023-04-02T16:28:07;20.20;99.90
40177;DHT22;31511;46.176;9.874;2023-04-02T16:31:01;20.20;99.90
40177;DHT22;31511;46.176;9.874;2023-04-02T16:40:14;20.00;99.90
40177;DHT22;31511;46.176;9.874;2023-04-02T16:55:02;19.40;99.90
40177;DHT22;31511;46.176;9.874;2023-04-02T16:57:59;19.30;99.90
40177;DHT22;31511;46.176;9.874;2023-04-02T17:09:34;18.40;99.90
40177;DHT22;31511;46.176;9.874;2023-04-02T17:12:22;18.30;99.90
40177;DHT22;31511;46.176;9.874;2023-04-02T17:15:15;18.30;99.90
40177;DHT22;31511;46.176;9.874;2023-04-02T17:18:01;18.20;99.90
40177;DHT22;31511;46.176;9.874;2023-04-02T17:20:51;18.10;99.90
40177;DHT22;31511;46.176;9.874;2023-04-02T17:23:53;18.00;99.90
40177;DHT22;31511;46.176;9.874;2023-04-02T17:26:38;17.90;99.90
40177;DHT22;31511;46.176;9.874;2023-04-02T17:29:34;17.80;99.90
40177;DHT22;31511;46.176;9.874;2023-04-02T17:32:27;17.70;99.90
40177;DHT22;31511;46.176;9.874;2023-04-02T17:35:15;17.60;99.90
40177;DHT22;31511;46.176;9.874;2023-04-02T17:55:59;17.20;99.90
40177;DHT22;31511;46.176;9.874;2023-04-02T18:10:18;17.00;99.90
40177;DHT22;31511;46.176;9.874;2023-04-02T18:30:35;16.60;99.90
40177;DHT22;31511;46.176;9.874;2023-04-02T18:38:59;16.30;99.90
40177;DHT22;31511;46.176;9.874;2023-04-02T18:50:33;16.00;99.90
40177;DHT22;31511;46.176;9.874;2023-04-02T18:53:20;16.00;99.90
40177;DHT22;31511;46.176;9.874;2023-04-02T18:56:11;15.90;99.90
40177;DHT22;31511;46.176;9.874;2023-04-02T18:59:05;15.90;99.90
40177;DHT22;31511;46.176;9.874;2023-04-02T19:01:55;15.70;99.90
40177;DHT22;31511;46.176;9.874;2023-04-02T19:04:41;15.70;99.90
40177;DHT22;31511;46.176;9.874;2023-04-02T19:07:32;15.60;99.90
40177;DHT22;31511;46.176;9.874;2023-04-02T19:10:34;15.60;99.90
40177;DHT22;31511;46.176;9.874;2023-04-02T19:13:20;15.60;99.90
40177;DHT22;31511;46.176;9.874;2023-04-02T19:22:14;15.60;99.90
40177;DHT22;31511;46.176;9.874;2023-04-02T19:25:15;15.50;99.90
40177;DHT22;31511;46.176;9.874;2023-04-02T19:28:11;15.50;99.90
40177;DHT22;31511;46.176;9.874;2023-04-02T19:31:00;15.30;99.90
40177;DHT22;31511;46.176;9.874;2023-04-02T19:36:54;15.40;99.90
40177;DHT22;31511;46.176;9.874;2023-04-02T19:39:49;15.10;99.90
40177;DHT22;31511;46.176;9.874;2023-04-02T19:45:24;14.50;99.90
40177;DHT22;31511;46.176;9.874;2023-04-02T19:48:16;14.50;99.90
40177;DHT22;31511;46.176;9.874;2023-04-02T19:51:01;14.40;99.90
40177;DHT22;31511;46.176;9.874;2023-04-02T19:53:45;14.40;99.90
40177;DHT22;31511;46.176;9.874;2023-04-02T19:56:30;14.20;99.90
40177;DHT22;31511;46.176;9.874;2023-04-02T19:59:14;14.30;99.90
40177;DHT22;31511;46.176;9.874;2023-04-02T20:01:59;13.90;99.90
40177;DHT22;31511;46.176;9.874;2023-04-02T20:04:48;13.80;99.90
40177;DHT22;31511;46.176;9.874;2023-04-02T20:07:32;13.80;99.90
40177;DHT22;31511;46.176;9.874;2023-04-02T20:10:17;14.00;99.90
40177;DHT22;31511;46.176;9.874;2023-04-02T20:13:01;14.00;99.90
40177;DHT22;31511;46.176;9.874;2023-04-02T20:15:46;13.70;99.90
40177;DHT22;31511;46.176;9.874;2023-04-02T20:18:30;13.60;99.90
40177;DHT22;31511;46.176;9.874;2023-04-02T20:21:15;13.50;99.90
40177;DHT22;31511;46.176;9.874;2023-04-02T20:24:03;13.40;99.90
40177;DHT22;31511;46.176;9.874;2023-04-02T20:26:48;13.50;99.90
40177;DHT22;31511;46.176;9.874;2023-04-02T20:29:32;13.50;99.90
40177;DHT22;31511;46.176;9.874;2023-04-02T20:32:16;13.30;99.90
40177;DHT22;31511;46.176;9.874;2023-04-02T20:35:02;13.30;99.90
40177;DHT22;31511;46.176;9.874;2023-04-02T20:37:46;13.30;99.90
40177;DHT22;31511;46.176;9.874;2023-04-02T20:40:31;13.20;99.90
40177;DHT22;31511;46.176;9.874;2023-04-02T20:43:16;13.30;99.90
40177;DHT22;31511;46.176;9.874;2023-04-02T20:46:01;13.40;99.90
40177;DHT22;31511;46.176;9.874;2023-04-02T20:48:50;13.50;99.90
40177;DHT22;31511;46.176;9.874;2023-04-02T20:51:35;13.40;99.90
40177;DHT22;31511;46.176;9.874;2023-04-02T20:54:20;13.40;99.90
40177;DHT22;31511;46.176;9.874;2023-04-02T20:57:05;13.20;99.90
40177;DHT22;31511;46.176;9.874;2023-04-02T20:59:49;13.10;99.90
40177;DHT22;31511;46.176;9.874;2023-04-02T21:02:33;12.90;99.90
40177;DHT22;31511;46.176;9.874;2023-04-02T21:05:18;12.80;99.90
40177;DHT22;31511;46.176;9.874;2023-04-02T21:08:03;12.80;99.90
40177;DHT22;31511;46.176;9.874;2023-04-02T21:10:48;12.80;99.90
40177;DHT22;31511;46.176;9.874;2023-04-02T21:13:33;12.80;99.90
40177;DHT22;31511;46.176;9.874;2023-04-02T21:16:27;13.00;99.90
40177;DHT22;31511;46.176;9.874;2023-04-02T21:19:15;13.00;99.90
40177;DHT22;31511;46.176;9.874;2023-04-02T21:21:59;12.80;99.90
40177;DHT22;31511;46.176;9.874;2023-04-02T21:24:43;12.60;99.90
40177;DHT22;31511;46.176;9.874;2023-04-02T21:27:29;12.40;99.90
40177;DHT22;31511;46.176;9.874;2023-04-02T21:30:14;12.50;99.90
40177;DHT22;31511;46.176;9.874;2023-04-02T21:32:59;12.70;99.90
40177;DHT22;31511;46.176;9.874;2023-04-02T21:35:43;12.70;99.90
40177;DHT22;31511;46.176;9.874;2023-04-02T21:38:28;12.40;99.90
40177;DHT22;31511;46.176;9.874;2023-04-02T21:44:00;12.10;99.90
40177;DHT22;31511;46.176;9.874;2023-04-02T21:46:46;12.20;99.90
40177;DHT22;31511;46.176;9.874;2023-04-02T21:49:30;12.20;99.90
40177;DHT22;31511;46.176;9.874;2023-04-02T21:52:15;12.20;99.90
40177;DHT22;31511;46.176;9.874;2023-04-02T21:54:59;12.10;99.90
40177;DHT22;31511;46.176;9.874;2023-04-02T21:57:45;11.90;99.90
40177;DHT22;31511;46.176;9.874;2023-04-02T22:00:29;11.80;99.90
40177;DHT22;31511;46.176;9.874;2023-04-02T22:03:13;11.90;99.90
40177;DHT22;31511;46.176;9.874;2023-04-02T22:06:06;11.70;99.90
40177;DHT22;31511;46.176;9.874;2023-04-02T22:08:54;11.70;99.90
40177;DHT22;31511;46.176;9.874;2023-04-02T22:11:41;11.60;99.90
40177;DHT22;31511;46.176;9.874;2023-04-02T22:14:26;11.70;99.90
40177;DHT22;31511;46.176;9.874;2023-04-02T22:17:12;11.80;99.90
40177;DHT22;31511;46.176;9.874;2023-04-02T22:19:57;11.90;99.90
40177;DHT22;31511;46.176;9.874;2023-04-02T22:22:42;11.70;99.90
40177;DHT22;31511;46.176;9.874;2023-04-02T22:25:28;11.60;99.90